Ontario International Airport Ontario US
ICAO: KONT
IATA: ONT
Category: Large
Scheduled Services: Yes

Elevation: 944 ft
TransAlt. 18000 ft.

Airport Communications:
SOCAL APP/DEP:119.65
ATIS:124.25
CLNC DEL:118.1
GND:121.9
TWR:120.6

KONT Zoom In..

Runways:

(A) RW 08L length 12197 ft width 150 ft
ILS 109.70 / hdg 76

(B) RW 08R length 10200 ft width 150 ft
---- / hdg 76

(C) RW 26L length 10200 ft width 150 ft
ILS 111.35 / hdg 256

(D) RW 26R length 12197 ft width 150 ft
ILS 109.70 / hdg 256

Location; KONT
Day. 24 / Time. 01.53 Zulu
* Altimeter: 30.12
* Temperature: 19° c. 66.2°f.
* Wind from: VRB° Speed 05 kn.
Dewpoint: -04° c.
Visibility: 10 Statute Miles.
Clouds: Few 25000 ft.

KONT 240153Z VRB05KT 10SM FEW250 19/M04 A3012 RMK AO2 SLP198 T01941039


Wind From VRB°
Speed 05 kn.

YouTube Music Video
 
jpsmedia.com for Web Design  worldairports.se 2018   terms of use